createdAt,value
2023-02-08T00:00:45.569Z,104036.81
2023-02-08T00:03:13.550Z,104035.91
2023-02-08T00:05:41.330Z,104037.66
2023-02-08T00:08:09.287Z,104037.66
2023-02-08T00:10:37.096Z,104040.28
2023-02-08T00:13:06.089Z,104036.81
2023-02-08T00:15:33.710Z,104036.84
2023-02-08T00:18:01.370Z,104025.59
2023-02-08T00:20:29.092Z,104030.88
2023-02-08T00:22:57.355Z,104030.00
2023-02-08T00:25:24.995Z,104023.97
2023-02-08T00:27:52.711Z,104023.09
2023-02-08T00:30:21.916Z,104024.03
2023-02-08T00:32:49.628Z,104025.84
2023-02-08T00:35:17.365Z,104031.13
2023-02-08T00:37:44.963Z,104026.84
2023-02-08T00:40:13.333Z,104031.22
2023-02-08T00:42:41.388Z,104031.28
2023-02-08T00:45:10.120Z,104039.16
2023-02-08T00:47:39.226Z,104033.94
2023-02-08T00:50:08.017Z,104033.13
2023-02-08T00:52:35.572Z,104026.22
2023-02-08T00:55:03.243Z,104028.03
2023-02-08T00:57:32.617Z,104026.28
2023-02-08T01:00:00.288Z,104021.06
2023-02-08T01:02:28.784Z,104023.69
2023-02-08T01:04:57.769Z,104020.19
2023-02-08T01:07:25.379Z,104021.06
2023-02-08T01:09:53.287Z,104024.50
2023-02-08T01:12:21.013Z,104033.19
2023-02-08T01:14:48.704Z,104039.16
2023-02-08T01:17:16.436Z,104036.41
2023-02-08T01:19:44.049Z,104035.50
2023-02-08T01:22:13.011Z,104047.72
2023-02-08T01:24:40.714Z,104038.19
2023-02-08T01:27:08.336Z,104041.72
2023-02-08T01:29:36.187Z,104027.88
2023-02-08T01:32:03.791Z,104030.59
2023-02-08T01:34:31.429Z,104034.13
2023-02-08T01:36:59.097Z,104027.22
2023-02-08T01:39:28.064Z,104015.16
2023-02-08T01:41:55.826Z,104000.44
2023-02-08T01:45:02.918Z,103997.03
2023-02-08T01:47:31.041Z,103998.00
2023-02-08T01:49:58.803Z,103991.03
2023-02-08T01:52:30.111Z,103991.06
2023-02-08T01:55:03.357Z,103994.56
2023-02-08T01:57:31.553Z,103989.34
2023-02-08T02:00:02.496Z,103994.56
2023-02-08T02:02:30.897Z,103997.13
2023-02-08T02:04:58.524Z,103992.75
2023-02-08T02:07:29.881Z,103996.19
2023-02-08T02:10:08.908Z,103983.06
2023-02-08T02:12:38.954Z,103982.94
2023-02-08T02:15:07.055Z,103981.13
2023-02-08T02:17:35.841Z,103983.69
2023-02-08T02:20:10.035Z,103973.16
2023-02-08T02:22:58.037Z,103972.22
2023-02-08T02:25:53.120Z,103973.03
2023-02-08T02:28:53.130Z,103972.97
2023-02-08T02:31:52.766Z,103974.66
2023-02-08T02:34:27.239Z,103970.31
2023-02-08T02:37:02.354Z,103979.03
2023-02-08T02:39:40.214Z,103980.78
2023-02-08T02:42:32.760Z,103982.56
2023-02-08T02:45:09.452Z,103980.88
2023-02-08T02:47:45.323Z,103985.25
2023-02-08T02:50:20.247Z,103987.84
2023-02-08T02:52:57.041Z,103998.34
2023-02-08T02:55:27.045Z,104005.34
2023-02-08T02:57:59.373Z,104007.13
2023-02-08T03:00:31.164Z,104008.00
2023-02-08T03:03:00.196Z,103997.63
2023-02-08T03:05:29.075Z,103998.56
2023-02-08T03:08:11.960Z,103997.75
2023-02-08T03:11:00.195Z,103998.75
2023-02-08T03:13:37.970Z,103990.09
2023-02-08T03:16:18.116Z,103989.34
2023-02-08T03:19:00.753Z,103991.13
2023-02-08T03:21:39.017Z,103999.00
2023-02-08T03:24:20.792Z,103985.97
2023-02-08T03:26:56.830Z,103985.97
2023-02-08T03:29:32.232Z,103990.31
2023-02-08T03:32:03.713Z,103986.84
2023-02-08T03:34:42.854Z,103992.06
2023-02-08T03:37:16.180Z,103986.84
2023-02-08T03:39:45.576Z,103980.75
2023-02-08T03:42:16.409Z,103995.53
2023-02-08T03:44:52.266Z,104001.59
2023-02-08T03:47:25.743Z,103992.88
2023-02-08T03:49:58.019Z,103995.50
2023-02-08T03:52:26.357Z,103994.63
2023-02-08T03:54:58.131Z,103987.72
2023-02-08T03:57:28.567Z,103990.28
2023-02-08T03:59:59.599Z,103985.06
2023-02-08T04:02:31.080Z,103999.84
2023-02-08T04:05:01.814Z,104011.16
2023-02-08T04:07:29.558Z,104012.91
2023-02-08T04:09:58.042Z,104015.53
2023-02-08T04:12:25.649Z,104015.53
2023-02-08T04:14:53.281Z,104010.28
2023-02-08T04:17:20.922Z,104003.38
2023-02-08T04:19:48.615Z,103991.19
2023-02-08T04:22:17.557Z,103992.09
2023-02-08T04:24:45.290Z,103994.69
2023-02-08T04:27:13.026Z,103994.69
2023-02-08T04:29:41.643Z,103992.94
2023-02-08T04:32:11.641Z,103990.38
2023-02-08T04:34:39.328Z,103999.91
2023-02-08T04:37:07.427Z,103999.91
2023-02-08T04:39:36.521Z,103990.34
2023-02-08T04:42:04.251Z,103995.56
2023-02-08T04:44:32.858Z,103997.34
2023-02-08T04:47:00.552Z,103994.75
2023-02-08T04:49:28.150Z,103983.44
2023-02-08T04:51:55.760Z,103977.41
2023-02-08T04:54:23.435Z,103990.50
2023-02-08T04:56:52.582Z,103982.72
2023-02-08T04:59:20.264Z,103988.81
2023-02-08T05:01:47.983Z,103992.41
2023-02-08T05:04:15.642Z,103993.34
2023-02-08T05:06:43.241Z,103998.50
2023-02-08T05:09:11.160Z,103998.50
2023-02-08T05:11:38.838Z,104001.13
2023-02-08T05:14:07.789Z,103994.13
2023-02-08T05:16:35.466Z,103994.97
2023-02-08T05:19:03.144Z,103990.63
2023-02-08T05:21:31.087Z,103992.38
2023-02-08T05:23:58.696Z,104001.06
2023-02-08T05:26:26.321Z,104010.59
2023-02-08T05:28:53.985Z,104010.59
2023-02-08T05:31:25.392Z,104009.72
2023-02-08T05:33:53.947Z,104007.09
2023-02-08T05:36:23.198Z,104000.16
2023-02-08T05:38:51.202Z,104004.50
2023-02-08T05:41:19.105Z,104006.28
2023-02-08T05:43:46.832Z,104008.03
2023-02-08T05:46:15.025Z,104004.56
2023-02-08T05:48:44.545Z,104000.25
2023-02-08T05:51:12.284Z,103997.69
2023-02-08T05:53:40.100Z,104002.06
2023-02-08T05:56:08.285Z,104012.50
2023-02-08T05:58:36.185Z,104010.75
2023-02-08T06:01:09.140Z,104002.97
2023-02-08T06:03:36.827Z,103994.28
2023-02-08T06:06:06.129Z,103991.69
2023-02-08T06:08:34.182Z,103996.91
2023-02-08T06:11:01.768Z,103988.25
2023-02-08T06:13:30.117Z,103979.56
2023-02-08T06:15:57.758Z,103993.50
2023-02-08T06:18:25.364Z,103981.31
2023-02-08T06:20:53.694Z,103977.84
2023-02-08T06:23:23.169Z,103964.81
2023-02-08T06:25:50.869Z,103963.91
2023-02-08T06:28:18.542Z,103967.38
2023-02-08T06:30:46.360Z,103973.47
2023-02-08T06:33:15.775Z,103968.25
2023-02-08T06:35:45.958Z,103964.75
2023-02-08T06:38:13.651Z,103965.66
2023-02-08T06:40:42.830Z,103970.84
2023-02-08T06:43:10.626Z,103976.06
2023-02-08T06:45:38.296Z,103977.75
2023-02-08T06:48:06.383Z,103974.28
2023-02-08T06:50:34.173Z,103968.19
2023-02-08T06:53:01.814Z,103969.03
2023-02-08T06:55:29.421Z,103969.03
2023-02-08T06:57:58.449Z,103979.50
2023-02-08T07:00:26.074Z,103984.66
2023-02-08T07:02:53.621Z,103985.53
2023-02-08T07:05:21.319Z,103982.84
2023-02-08T07:07:49.520Z,103981.91
2023-02-08T07:10:17.528Z,103971.44
2023-02-08T07:12:45.162Z,103981.88
2023-02-08T07:15:14.156Z,103983.53
2023-02-08T07:17:41.940Z,103985.28
2023-02-08T07:20:11.349Z,103986.91
2023-02-08T07:22:39.563Z,103982.53
2023-02-08T07:25:08.691Z,103978.16
2023-02-08T07:27:36.640Z,103976.28
2023-02-08T07:30:04.972Z,103977.03
2023-02-08T07:32:34.896Z,103972.63
2023-02-08T07:35:02.817Z,103969.88
2023-02-08T07:37:31.694Z,103963.66
2023-02-08T07:39:59.438Z,103963.59
2023-02-08T07:42:27.149Z,103956.56
2023-02-08T07:44:54.869Z,103953.81
2023-02-08T07:47:22.520Z,103944.13
2023-02-08T07:49:51.478Z,103950.13
2023-02-08T07:52:19.045Z,103940.50
2023-02-08T07:54:46.676Z,103937.78
2023-02-08T07:57:20.293Z,103932.50
2023-02-08T07:59:48.110Z,103940.19
2023-02-08T08:02:16.496Z,103944.41
2023-02-08T08:04:44.150Z,103959.09
2023-02-08T08:07:13.076Z,103952.78
2023-02-08T08:09:40.804Z,103947.28
2023-02-08T08:12:08.457Z,103960.06
2023-02-08T08:14:36.115Z,103958.94
2023-02-08T08:17:03.715Z,103970.91
2023-02-08T08:19:31.304Z,103968.88
2023-02-08T08:21:59.257Z,103971.25
2023-02-08T08:24:28.504Z,103970.00
2023-02-08T08:26:56.150Z,103969.81
2023-02-08T08:29:23.747Z,103968.59
2023-02-08T08:31:52.082Z,103957.88
2023-02-08T08:34:19.701Z,103957.47
2023-02-08T08:36:47.343Z,103945.81
2023-02-08T08:39:15.231Z,103951.53
2023-02-08T08:41:44.197Z,103950.38
2023-02-08T08:44:11.880Z,103954.50
2023-02-08T08:46:40.173Z,103944.75
2023-02-08T08:49:07.867Z,103945.41
2023-02-08T08:51:36.126Z,103940.78
2023-02-08T08:54:04.071Z,103944.88
2023-02-08T08:56:32.792Z,103948.97
2023-02-08T08:59:01.860Z,103946.25
2023-02-08T09:01:29.701Z,103932.94
2023-02-08T09:03:57.464Z,103938.06
2023-02-08T09:06:25.041Z,103935.22
2023-02-08T09:08:52.738Z,103934.75
2023-02-08T09:11:20.412Z,103942.09
2023-02-08T09:13:51.297Z,103939.94
2023-02-08T09:16:20.841Z,103947.47
2023-02-08T09:18:48.534Z,103941.78
2023-02-08T09:21:18.170Z,103944.88
2023-02-08T09:23:47.401Z,103945.31
2023-02-08T09:26:17.772Z,103937.94
2023-02-08T09:28:45.892Z,103935.25
2023-02-08T09:31:19.687Z,103924.50
2023-02-08T09:33:49.000Z,103928.56
2023-02-08T09:36:17.953Z,103926.59
2023-02-08T09:38:46.346Z,103914.91
2023-02-08T09:41:25.930Z,103910.19
2023-02-08T09:44:04.714Z,103902.84
2023-02-08T09:46:38.462Z,103903.81
2023-02-08T09:49:17.402Z,103905.34
2023-02-08T09:51:48.608Z,103910.44
2023-02-08T09:54:21.782Z,103912.22
2023-02-08T09:56:51.468Z,103901.50
2023-02-08T09:59:23.835Z,103905.59
2023-02-08T10:01:54.867Z,103910.63
2023-02-08T10:04:31.407Z,103909.94
2023-02-08T10:06:59.137Z,103906.91
2023-02-08T10:09:28.228Z,103919.81
2023-02-08T10:12:07.737Z,103918.44
2023-02-08T10:14:46.816Z,103927.63
2023-02-08T10:17:41.487Z,103921.03
2023-02-08T10:20:20.894Z,103921.50
2023-02-08T10:23:01.228Z,103919.25
2023-02-08T10:25:46.316Z,103919.69
2023-02-08T10:28:29.256Z,103926.94
2023-02-08T10:31:03.545Z,103919.88
2023-02-08T10:33:37.280Z,103927.25
2023-02-08T10:36:15.386Z,103922.38
2023-02-08T10:38:46.775Z,103919.88
2023-02-08T10:41:19.482Z,103922.38
2023-02-08T10:43:51.014Z,103915.91
2023-02-08T10:46:27.001Z,103912.50
2023-02-08T10:49:04.936Z,103907.84
2023-02-08T10:51:34.361Z,103910.72
2023-02-08T10:54:02.012Z,103910.28
2023-02-08T10:56:48.226Z,103908.00
2023-02-08T10:59:20.207Z,103911.28
2023-02-08T11:01:49.436Z,103905.50
2023-02-08T11:04:17.939Z,103903.22
2023-02-08T11:06:49.575Z,103899.66
2023-02-08T11:09:29.085Z,103900.63
2023-02-08T11:11:58.556Z,103887.13
2023-02-08T11:14:44.636Z,103890.19
2023-02-08T11:17:27.076Z,103882.72
2023-02-08T11:19:54.962Z,103881.66
2023-02-08T11:22:27.563Z,103876.22
2023-02-08T11:24:58.543Z,103880.44
2023-02-08T11:27:34.743Z,103872.09
2023-02-08T11:30:22.056Z,103859.88
2023-02-08T11:33:11.079Z,103860.53
2023-02-08T11:35:38.759Z,103860.63
2023-02-08T11:38:17.206Z,103852.94
2023-02-08T11:40:46.573Z,103851.50
2023-02-08T11:43:22.488Z,103845.44
2023-02-08T11:45:50.780Z,103850.41
2023-02-08T11:48:24.258Z,103846.66
2023-02-08T11:50:58.828Z,103845.75
2023-02-08T11:53:32.243Z,103841.13
2023-02-08T11:56:05.879Z,103842.53
2023-02-08T11:58:33.969Z,103835.28
2023-02-08T12:01:04.523Z,103830.44
2023-02-08T12:03:37.322Z,103820.22
2023-02-08T12:06:21.302Z,103818.84
2023-02-08T12:09:01.852Z,103817.13
2023-02-08T12:11:37.751Z,103813.47
2023-02-08T12:14:26.912Z,103809.66
2023-02-08T12:17:20.462Z,103804.09
2023-02-08T12:20:09.015Z,103799.84
2023-02-08T12:22:41.898Z,103792.66
2023-02-08T12:25:25.717Z,103786.56
2023-02-08T12:28:01.329Z,103787.53
2023-02-08T12:30:34.741Z,103788.28
2023-02-08T12:33:25.143Z,103777.28
2023-02-08T12:36:31.209Z,103775.19
2023-02-08T12:39:29.137Z,103761.63
2023-02-08T12:42:33.325Z,103752.84
2023-02-08T12:45:27.495Z,103753.53
2023-02-08T12:48:07.301Z,103740.03
2023-02-08T12:50:41.095Z,103736.34
2023-02-08T12:53:18.461Z,103728.22
2023-02-08T12:55:49.826Z,103720.16
2023-02-08T12:58:27.844Z,103731.16
2023-02-08T13:00:57.546Z,103723.28
2023-02-08T13:03:35.876Z,103717.31
2023-02-08T13:06:07.444Z,103714.00
2023-02-08T13:08:41.767Z,103717.31
2023-02-08T13:11:20.118Z,103720.56
2023-02-08T13:13:57.749Z,103708.06
2023-02-08T13:16:30.326Z,103708.34
2023-02-08T13:19:12.549Z,103708.44
2023-02-08T13:21:43.721Z,103702.22
2023-02-08T13:24:19.939Z,103695.22
2023-02-08T13:26:47.619Z,103695.09
2023-02-08T13:29:20.429Z,103691.63
2023-02-08T13:31:52.323Z,103695.88
2023-02-08T13:34:29.096Z,103684.13
2023-02-08T13:37:00.419Z,103693.91
2023-02-08T13:39:36.225Z,103684.69
2023-02-08T13:42:06.673Z,103675.72
2023-02-08T13:44:38.388Z,103674.41
2023-02-08T13:47:07.698Z,103678.72
2023-02-08T13:50:00.815Z,103672.56
2023-02-08T13:52:49.102Z,103667.03
2023-02-08T13:55:53.313Z,103659.75
2023-02-08T13:59:05.728Z,103662.88
2023-02-08T14:01:36.616Z,103655.00
2023-02-08T14:04:34.961Z,103657.47
2023-02-08T14:07:16.810Z,103661.72
2023-02-08T14:10:11.231Z,103649.72
2023-02-08T14:12:43.994Z,103652.56
2023-02-08T14:15:30.802Z,103648.31
2023-02-08T14:18:01.602Z,103636.38
2023-02-08T14:20:41.014Z,103642.91
2023-02-08T14:23:23.067Z,103624.44
2023-02-08T14:25:52.465Z,103617.41
2023-02-08T14:28:27.110Z,103618.56
2023-02-08T14:30:58.729Z,103615.81
2023-02-08T14:33:31.762Z,103619.44
2023-02-08T14:36:02.773Z,103608.06
2023-02-08T14:38:53.027Z,103605.88
2023-02-08T14:41:43.643Z,103595.09
2023-02-08T14:44:55.952Z,103598.19
2023-02-08T14:47:58.932Z,103605.78
2023-02-08T14:50:35.018Z,103604.66
2023-02-08T14:53:07.707Z,103602.25
2023-02-08T14:55:44.056Z,103593.81
2023-02-08T14:58:16.211Z,103591.63
2023-02-08T15:00:45.543Z,103594.63
2023-02-08T15:03:17.411Z,103588.06
2023-02-08T15:06:03.553Z,103598.88
2023-02-08T15:08:31.384Z,103599.22
2023-02-08T15:10:59.144Z,103604.03
2023-02-08T15:13:26.874Z,103602.84
2023-02-08T15:15:56.894Z,103603.09
2023-02-08T15:18:29.001Z,103599.16
2023-02-08T15:21:04.362Z,103601.19
2023-02-08T15:23:32.722Z,103602.47
2023-02-08T15:26:02.731Z,103597.50
2023-02-08T15:28:32.648Z,103593.50
2023-02-08T15:31:03.401Z,103598.44
2023-02-08T15:33:31.970Z,103587.50
2023-02-08T15:36:06.192Z,103589.78
2023-02-08T15:38:38.380Z,103587.66
2023-02-08T15:41:08.162Z,103592.38
2023-02-08T15:43:37.239Z,103583.00
2023-02-08T15:46:07.743Z,103590.38
2023-02-08T15:48:39.396Z,103584.63
2023-02-08T15:51:11.362Z,103580.63
2023-02-08T15:53:41.583Z,103574.03
2023-02-08T15:56:12.386Z,103575.44
2023-02-08T15:58:45.150Z,103571.47
2023-02-08T16:01:19.694Z,103560.47
2023-02-08T16:03:50.331Z,103553.88
2023-02-08T16:06:24.467Z,103546.50
2023-02-08T16:08:55.207Z,103545.25
2023-02-08T16:11:27.148Z,103543.06
2023-02-08T16:13:58.186Z,103543.53
2023-02-08T16:16:37.518Z,103536.06
2023-02-08T16:19:07.721Z,103539.81
2023-02-08T16:21:39.283Z,103552.34
2023-02-08T16:24:20.394Z,103543.84
2023-02-08T16:26:55.629Z,103559.91
2023-02-08T16:29:27.272Z,103553.94
2023-02-08T16:32:03.326Z,103557.75
2023-02-08T16:34:33.851Z,103551.09
2023-02-08T16:37:04.653Z,103550.53
2023-02-08T16:39:42.247Z,103551.72
2023-02-08T16:42:23.846Z,103549.44
2023-02-08T16:45:17.447Z,103538.44
2023-02-08T16:47:47.752Z,103544.94
2023-02-08T16:50:18.356Z,103548.78
2023-02-08T16:52:49.495Z,103542.00
2023-02-08T16:55:20.437Z,103529.28
2023-02-08T16:57:49.771Z,103533.09
2023-02-08T17:00:23.595Z,103529.94
2023-02-08T17:02:51.689Z,103520.63
2023-02-08T17:05:20.868Z,103513.00
2023-02-08T17:07:50.445Z,103510.63
2023-02-08T17:10:21.978Z,103508.25
2023-02-08T17:12:49.627Z,103505.72
2023-02-08T17:15:17.671Z,103488.31
2023-02-08T17:17:45.269Z,103490.94
2023-02-08T17:20:20.978Z,103483.84
2023-02-08T17:22:50.575Z,103475.06
2023-02-08T17:25:19.884Z,103469.72
2023-02-08T17:27:50.824Z,103464.34
2023-02-08T17:30:22.741Z,103464.28
2023-02-08T17:32:50.764Z,103461.66
2023-02-08T17:35:19.002Z,103459.88
2023-02-08T17:37:47.568Z,103466.91
2023-02-08T17:40:17.691Z,103452.06
2023-02-08T17:42:47.586Z,103457.31
2023-02-08T17:45:15.670Z,103442.47
2023-02-08T17:47:43.342Z,103440.78
2023-02-08T17:50:12.530Z,103433.81
2023-02-08T17:52:41.691Z,103436.31
2023-02-08T17:55:13.409Z,103431.06
2023-02-08T17:57:43.272Z,103431.06
2023-02-08T18:00:13.827Z,103426.66
2023-02-08T18:02:44.580Z,103427.44
2023-02-08T18:05:12.315Z,103416.09
2023-02-08T18:07:41.369Z,103421.28
2023-02-08T18:10:10.977Z,103417.78
2023-02-08T18:12:39.173Z,103400.28
2023-02-08T18:15:11.986Z,103401.94
2023-02-08T18:17:40.035Z,103403.72
2023-02-08T18:20:09.073Z,103402.91
2023-02-08T18:22:38.098Z,103397.69
2023-02-08T18:25:06.565Z,103399.47
2023-02-08T18:27:34.537Z,103388.13
2023-02-08T18:30:02.179Z,103389.03
2023-02-08T18:32:31.197Z,103384.78
2023-02-08T18:35:00.166Z,103383.97
2023-02-08T18:37:28.829Z,103379.59
2023-02-08T18:39:56.617Z,103380.53
2023-02-08T18:42:24.262Z,103372.69
2023-02-08T18:44:51.835Z,103372.69
2023-02-08T18:47:19.477Z,103371.94
2023-02-08T18:49:48.436Z,103371.97
2023-02-08T18:52:16.122Z,103367.81
2023-02-08T18:54:43.757Z,103371.34
2023-02-08T18:57:11.395Z,103369.72
2023-02-08T18:59:39.577Z,103364.50
2023-02-08T19:02:08.699Z,103367.28
2023-02-08T19:04:38.668Z,103369.03
2023-02-08T19:07:07.730Z,103372.59
2023-02-08T19:09:35.798Z,103370.13
2023-02-08T19:12:03.859Z,103364.13
2023-02-08T19:14:31.503Z,103367.81
2023-02-08T19:16:59.125Z,103376.69
2023-02-08T19:19:26.818Z,103371.56
2023-02-08T19:21:54.387Z,103379.56
2023-02-08T19:24:23.347Z,103383.19
2023-02-08T19:26:50.981Z,103385.03
2023-02-08T19:29:21.784Z,103393.88
2023-02-08T19:31:50.506Z,103381.72
2023-02-08T19:34:19.174Z,103381.03
2023-02-08T19:36:51.547Z,103369.00
2023-02-08T19:39:21.178Z,103366.44
2023-02-08T19:41:52.618Z,103357.81
2023-02-08T19:44:21.732Z,103350.97
2023-02-08T19:46:51.363Z,103354.59
2023-02-08T19:49:19.741Z,103345.06
2023-02-08T19:51:47.419Z,103345.19
2023-02-08T19:54:17.064Z,103355.69
2023-02-08T19:56:45.079Z,103353.97
2023-02-08T19:59:19.920Z,103358.44
2023-02-08T20:01:48.011Z,103352.34
2023-02-08T20:04:16.153Z,103348.00
2023-02-08T20:06:44.961Z,103351.47
2023-02-08T20:09:16.273Z,103332.41
2023-02-08T20:11:56.363Z,103329.78
2023-02-08T20:14:26.545Z,103338.59
2023-02-08T20:16:54.690Z,103326.50
2023-02-08T20:19:22.339Z,103323.03
2023-02-08T20:21:50.177Z,103329.13
2023-02-08T20:24:18.561Z,103326.50
2023-02-08T20:26:48.024Z,103323.88
2023-02-08T20:29:16.673Z,103325.59
2023-02-08T20:31:48.064Z,103318.56
2023-02-08T20:34:18.619Z,103322.97
2023-02-08T20:37:04.448Z,103328.13
2023-02-08T20:39:34.087Z,103315.09
2023-02-08T20:42:01.988Z,103316.00
2023-02-08T20:44:30.805Z,103315.22
2023-02-08T20:46:59.753Z,103323.94
2023-02-08T20:49:27.414Z,103317.91
2023-02-08T20:51:55.599Z,103310.03
2023-02-08T20:54:24.919Z,103307.50
2023-02-08T20:56:53.965Z,103311.88
2023-02-08T20:59:22.317Z,103299.69
2023-02-08T21:01:50.151Z,103305.81
2023-02-08T21:04:23.120Z,103311.16
2023-02-08T21:06:51.609Z,103306.94
2023-02-08T21:09:21.027Z,103307.88
2023-02-08T21:11:48.787Z,103304.53
2023-02-08T21:14:20.597Z,103305.50
2023-02-08T21:16:51.213Z,103304.69
2023-02-08T21:19:21.395Z,103313.50
2023-02-08T21:21:51.371Z,103314.50
2023-02-08T21:24:18.968Z,103311.88
2023-02-08T21:26:46.891Z,103310.16
2023-02-08T21:29:14.471Z,103314.66
2023-02-08T21:31:42.254Z,103307.69
2023-02-08T21:34:09.995Z,103303.53
2023-02-08T21:36:38.956Z,103299.25
2023-02-08T21:39:06.706Z,103294.16
2023-02-08T21:41:35.064Z,103296.88
2023-02-08T21:44:04.703Z,103294.41
2023-02-08T21:46:33.511Z,103280.47
2023-02-08T21:49:19.500Z,103283.22
2023-02-08T21:52:05.748Z,103273.69
2023-02-08T21:54:44.470Z,103279.09
2023-02-08T21:57:15.472Z,103278.31
2023-02-08T21:59:43.521Z,103274.91
2023-02-08T22:02:14.538Z,103267.09
2023-02-08T22:04:46.631Z,103258.47
2023-02-08T22:07:16.019Z,103263.00
2023-02-08T22:09:43.614Z,103265.63
2023-02-08T22:12:15.433Z,103259.59
2023-02-08T22:14:43.329Z,103252.72
2023-02-08T22:17:11.413Z,103250.16
2023-02-08T22:19:39.269Z,103247.53
2023-02-08T22:22:07.220Z,103245.91
2023-02-08T22:24:37.925Z,103247.66
2023-02-08T22:27:05.775Z,103243.28
2023-02-08T22:29:33.987Z,103245.91
2023-02-08T22:32:02.069Z,103238.13
2023-02-08T22:34:29.867Z,103237.25
2023-02-08T22:36:57.872Z,103235.50
2023-02-08T22:39:25.619Z,103231.16
2023-02-08T22:41:54.610Z,103225.16
2023-02-08T22:44:22.340Z,103225.16
2023-02-08T22:46:49.990Z,103222.66
2023-02-08T22:49:17.672Z,103221.72
2023-02-08T22:51:45.317Z,103215.69
2023-02-08T22:54:12.907Z,103214.84
2023-02-08T22:56:40.498Z,103214.84
2023-02-08T22:59:09.514Z,103214.84
2023-02-08T23:01:38.748Z,103216.72
2023-02-08T23:04:06.613Z,103215.91
2023-02-08T23:06:35.496Z,103213.41
2023-02-08T23:09:03.684Z,103209.97
2023-02-08T23:11:31.331Z,103194.38
2023-02-08T23:13:59.177Z,103198.78
2023-02-08T23:16:28.221Z,103189.16
2023-02-08T23:18:55.828Z,103189.22
2023-02-08T23:21:23.437Z,103180.59
2023-02-08T23:23:51.141Z,103188.50
2023-02-08T23:26:20.785Z,103180.63
2023-02-08T23:28:50.717Z,103186.00
2023-02-08T23:31:19.336Z,103172.97
2023-02-08T23:33:48.896Z,103173.88
2023-02-08T23:36:18.727Z,103173.09
2023-02-08T23:38:46.395Z,103162.69
2023-02-08T23:41:16.674Z,103161.81
2023-02-08T23:43:44.676Z,103158.34
2023-02-08T23:46:16.048Z,103150.56
2023-02-08T23:48:44.214Z,103145.38
2023-02-08T23:51:13.181Z,103146.31
2023-02-08T23:53:41.438Z,103135.03
2023-02-08T23:56:14.868Z,103132.41
2023-02-08T23:58:43.290Z,103128.13
